Time;durP1;ratioP1;P1;durP2;ratioP2;P2;SDS_P1;SDS_P2;PMS_P1;PMS_P2;Temp;Humidity;BMP_temperature;BMP_pressure;BME280_temperature;BME280_humidity;BME280_pressure;Samples;Min_cycle;Max_cycle;Signal;HPM_P1;HPM_P2
2023/06/26 00:01:49;;;;;;;11.13;8.05;;;20.60;77.60;;;;;;5025720;28;20025;-68
2023/06/26 00:04:15;;;;;;;12.45;7.97;;;20.60;78.00;;;;;;5035730;28;20160;-67
2023/06/26 00:06:41;;;;;;;8.93;8.00;;;20.60;78.10;;;;;;5038055;28;20070;-67
2023/06/26 00:09:07;;;;;;;13.30;9.10;;;20.50;78.20;;;;;;5028253;28;20430;-67
2023/06/26 00:11:33;;;;;;;10.50;8.30;;;20.50;78.30;;;;;;5025501;28;20021;-67
2023/06/26 00:14:00;;;;;;;10.13;7.68;;;20.50;78.50;;;;;;5028530;28;20041;-66
2023/06/26 00:16:26;;;;;;;10.43;8.07;;;20.50;78.30;;;;;;5025561;28;20112;-67
2023/06/26 00:18:52;;;;;;;11.98;8.55;;;20.50;78.30;;;;;;5033038;28;20037;-66
2023/06/26 00:21:18;;;;;;;11.38;7.85;;;20.50;78.50;;;;;;5031065;28;20037;-69
2023/06/26 00:23:44;;;;;;;11.35;7.93;;;20.50;78.20;;;;;;5026474;28;20045;-67
2023/06/26 00:26:10;;;;;;;11.95;8.27;;;20.50;78.40;;;;;;5031665;28;20051;-68
2023/06/26 00:28:35;;;;;;;10.75;8.10;;;20.50;78.40;;;;;;5029064;28;20091;-67
2023/06/26 00:31:01;;;;;;;10.18;7.35;;;20.50;78.30;;;;;;5025935;28;20030;-67
2023/06/26 00:33:26;;;;;;;10.30;7.75;;;20.50;78.30;;;;;;5027318;28;20028;-69
2023/06/26 00:35:52;;;;;;;11.07;7.70;;;20.50;78.40;;;;;;5027417;28;20365;-67
2023/06/26 00:38:17;;;;;;;10.27;7.78;;;20.50;78.10;;;;;;5035081;28;20041;-67
2023/06/26 00:40:43;;;;;;;10.27;7.55;;;20.50;78.30;;;;;;5022909;28;20941;-67
2023/06/26 00:43:09;;;;;;;13.82;7.68;;;20.50;78.20;;;;;;5026777;28;20023;-68
2023/06/26 00:45:34;;;;;;;9.25;7.45;;;20.50;78.30;;;;;;5022085;28;20211;-67
2023/06/26 00:48:01;;;;;;;9.38;7.57;;;20.60;77.80;;;;;;5025662;28;20044;-67
2023/06/26 00:50:27;;;;;;;10.70;7.03;;;20.60;77.60;;;;;;5022859;28;20114;-67
2023/06/26 00:52:56;;;;;;;8.40;7.03;;;20.60;77.90;;;;;;5026792;28;20086;-67
2023/06/26 00:55:22;;;;;;;8.25;6.82;;;20.60;77.60;;;;;;5036253;28;20033;-67
2023/06/26 00:57:47;;;;;;;8.40;6.63;;;20.70;77.30;;;;;;5024836;28;20033;-67
2023/06/26 01:00:14;;;;;;;12.48;7.20;;;20.70;77.40;;;;;;5020831;28;20417;-68
2023/06/26 01:02:40;;;;;;;7.97;6.82;;;20.60;77.60;;;;;;5026059;28;20431;-67
2023/06/26 01:05:06;;;;;;;8.90;6.95;;;20.60;78.10;;;;;;5025022;28;20045;-69
2023/06/26 01:07:37;;;;;;;9.13;6.95;;;20.60;77.90;;;;;;5025132;28;20040;-67
2023/06/26 01:10:07;;;;;;;8.15;7.13;;;20.50;77.90;;;;;;5021478;28;20116;-67
2023/06/26 01:12:33;;;;;;;11.60;7.35;;;20.50;78.10;;;;;;5037389;28;20514;-68
2023/06/26 01:14:59;;;;;;;8.35;7.15;;;20.50;78.10;;;;;;5028216;28;20124;-67
2023/06/26 01:17:31;;;;;;;9.95;7.13;;;20.50;78.20;;;;;;5028957;28;20187;-67
2023/06/26 01:20:00;;;;;;;9.25;7.85;;;20.30;78.80;;;;;;5023910;28;20025;-68
2023/06/26 01:22:45;;;;;;;9.02;6.97;;;20.20;78.80;;;;;;5026772;28;20040;-68
2023/06/26 01:25:38;;;;;;;9.90;7.63;;;20.20;79.30;;;;;;5016590;28;20116;-69
2023/06/26 01:28:05;;;;;;;10.43;7.43;;;20.00;79.80;;;;;;5026023;28;20390;-70
2023/06/26 01:30:36;;;;;;;10.60;7.90;;;20.00;80.30;;;;;;5015091;28;20159;-67
2023/06/26 01:33:02;;;;;;;9.77;7.80;;;20.00;80.10;;;;;;5039492;28;20056;-68
2023/06/26 01:35:29;;;;;;;10.23;7.47;;;20.00;80.00;;;;;;5025857;28;20460;-67
2023/06/26 01:38:11;;;;;;;16.63;8.32;;;20.00;80.20;;;;;;5027361;28;20043;-67
2023/06/26 01:40:37;;;;;;;12.95;8.07;;;20.00;80.60;;;;;;5016950;28;20032;-68
2023/06/26 01:43:03;;;;;;;9.27;7.70;;;19.90;80.80;;;;;;5021712;28;20029;-67
2023/06/26 01:45:33;;;;;;;9.70;7.22;;;19.90;80.70;;;;;;5022173;28;20491;-67
2023/06/26 01:48:00;;;;;;;9.82;8.20;;;19.80;80.90;;;;;;5028105;28;20036;-67
2023/06/26 01:50:30;;;;;;;8.63;7.18;;;19.80;81.00;;;;;;5024994;28;20103;-67
2023/06/26 01:53:12;;;;;;;10.82;8.35;;;19.70;81.20;;;;;;5024395;28;20196;-68
2023/06/26 01:55:51;;;;;;;9.80;7.72;;;19.70;81.50;;;;;;5023635;28;20115;-67
2023/06/26 01:58:20;;;;;;;11.27;8.23;;;19.60;81.80;;;;;;5027698;28;20045;-68
2023/06/26 02:00:47;;;;;;;11.60;8.43;;;19.60;81.90;;;;;;5019172;28;20244;-68
2023/06/26 02:03:12;;;;;;;10.55;8.02;;;19.50;82.10;;;;;;5032346;28;20060;-67
2023/06/26 02:05:37;;;;;;;9.65;7.82;;;19.50;82.00;;;;;;5030893;28;20164;-68
2023/06/26 02:08:04;;;;;;;12.18;8.40;;;19.50;82.30;;;;;;5030507;28;20033;-68
2023/06/26 02:10:29;;;;;;;10.68;8.30;;;19.50;82.40;;;;;;5020994;28;20024;-67
2023/06/26 02:12:55;;;;;;;10.45;8.18;;;19.50;82.50;;;;;;5026963;28;20765;-67
2023/06/26 02:15:21;;;;;;;10.30;8.48;;;19.40;82.60;;;;;;5026628;28;20052;-68
2023/06/26 02:17:48;;;;;;;10.50;8.63;;;19.40;83.00;;;;;;5021469;28;20029;-69
2023/06/26 02:20:15;;;;;;;10.23;8.25;;;19.40;82.90;;;;;;5021375;28;20022;-68
2023/06/26 02:22:41;;;;;;;14.38;8.15;;;19.30;83.50;;;;;;5028438;28;20033;-68
2023/06/26 02:25:06;;;;;;;11.05;8.98;;;19.20;83.20;;;;;;5021112;28;20120;-67
2023/06/26 02:27:32;;;;;;;10.50;8.30;;;19.30;83.00;;;;;;5024586;28;20048;-67
2023/06/26 02:29:57;;;;;;;10.38;8.88;;;19.20;83.10;;;;;;5027429;28;20033;-67
2023/06/26 02:32:23;;;;;;;10.35;8.60;;;19.30;83.20;;;;;;5022078;28;20056;-67
2023/06/26 02:34:48;;;;;;;12.27;8.52;;;19.30;83.40;;;;;;5021682;28;20037;-69
2023/06/26 02:37:16;;;;;;;11.20;9.32;;;19.20;83.70;;;;;;5021461;28;20129;-67
2023/06/26 02:39:41;;;;;;;10.93;8.50;;;19.20;83.70;;;;;;5024154;28;20376;-67
2023/06/26 02:42:06;;;;;;;10.50;9.00;;;19.20;83.80;;;;;;5030558;28;20032;-67
2023/06/26 02:44:32;;;;;;;11.55;8.60;;;19.20;83.60;;;;;;5022065;28;20120;-69
2023/06/26 02:46:58;;;;;;;11.60;9.15;;;19.10;83.80;;;;;;5021591;28;20018;-67
2023/06/26 02:49:23;;;;;;;10.95;8.40;;;19.10;83.70;;;;;;5026807;28;20040;-67
2023/06/26 02:51:49;;;;;;;9.88;8.60;;;19.10;83.80;;;;;;5022363;28;20041;-67
2023/06/26 02:54:14;;;;;;;10.73;9.15;;;19.10;84.00;;;;;;5030288;28;20067;-67
2023/06/26 02:56:40;;;;;;;11.00;8.18;;;19.10;83.90;;;;;;5036188;28;20033;-67
2023/06/26 02:59:05;;;;;;;10.13;8.88;;;19.10;84.20;;;;;;5025574;28;20037;-68
2023/06/26 03:01:31;;;;;;;10.52;8.65;;;19.00;84.00;;;;;;5020297;28;20147;-67
2023/06/26 03:03:56;;;;;;;12.02;8.98;;;19.00;84.10;;;;;;5023954;28;20091;-67
2023/06/26 03:06:22;;;;;;;10.15;8.95;;;19.00;84.20;;;;;;5025277;28;20054;-69
2023/06/26 03:08:47;;;;;;;13.38;8.68;;;19.00;84.30;;;;;;5026242;28;20051;-67
2023/06/26 03:11:13;;;;;;;10.75;8.88;;;19.00;84.50;;;;;;5034334;28;20072;-67
2023/06/26 03:13:38;;;;;;;11.73;9.38;;;19.00;84.60;;;;;;5029130;28;21571;-67
2023/06/26 03:16:04;;;;;;;11.73;9.43;;;19.00;84.60;;;;;;5029334;28;20512;-67
2023/06/26 03:18:30;;;;;;;12.60;9.55;;;19.00;84.60;;;;;;5032642;28;20441;-67
2023/06/26 03:20:56;;;;;;;10.90;9.05;;;19.00;84.70;;;;;;5029982;28;20139;-68
2023/06/26 03:23:22;;;;;;;12.82;9.52;;;19.00;84.80;;;;;;5032631;28;20044;-67
2023/06/26 03:25:49;;;;;;;10.45;9.35;;;19.00;84.80;;;;;;5027603;28;20033;-67
2023/06/26 03:28:14;;;;;;;12.10;9.43;;;19.00;84.80;;;;;;5031364;28;20609;-67
2023/06/26 03:30:40;;;;;;;12.45;9.07;;;19.00;84.60;;;;;;5022233;28;20547;-68
2023/06/26 03:33:05;;;;;;;11.65;9.25;;;19.00;84.70;;;;;;5034183;28;20265;-71
2023/06/26 03:35:31;;;;;;;10.73;8.88;;;19.00;84.50;;;;;;5031631;28;20029;-68
2023/06/26 03:37:57;;;;;;;11.05;9.55;;;19.00;84.60;;;;;;5022081;28;20029;-67
2023/06/26 03:40:23;;;;;;;12.80;9.23;;;19.00;84.60;;;;;;5027954;28;20021;-69
2023/06/26 03:42:48;;;;;;;12.25;9.40;;;19.00;84.50;;;;;;5033730;28;20112;-67
2023/06/26 03:45:14;;;;;;;12.20;9.23;;;19.00;84.60;;;;;;5037687;28;20048;-68
2023/06/26 03:47:39;;;;;;;11.50;9.20;;;19.00;84.70;;;;;;5024766;28;20045;-67
2023/06/26 03:50:05;;;;;;;13.35;9.07;;;19.10;84.60;;;;;;5033725;28;20529;-68
2023/06/26 03:52:31;;;;;;;13.85;9.15;;;19.10;84.40;;;;;;5027460;28;20466;-70
2023/06/26 03:54:57;;;;;;;10.52;8.98;;;19.10;84.70;;;;;;5029705;28;20062;-67
2023/06/26 03:57:23;;;;;;;12.30;9.02;;;19.10;84.50;;;;;;5027471;28;20084;-67
2023/06/26 03:59:49;;;;;;;10.95;8.95;;;19.10;84.50;;;;;;5029525;28;20544;-68
2023/06/26 04:02:14;;;;;;;10.55;8.13;;;19.20;84.60;;;;;;5027710;28;20025;-67
2023/06/26 04:04:40;;;;;;;12.73;8.65;;;19.20;84.50;;;;;;5028581;28;20053;-70
2023/06/26 04:07:05;;;;;;;13.60;8.55;;;19.30;84.40;;;;;;5030680;28;20029;-69
2023/06/26 04:09:31;;;;;;;14.35;9.23;;;19.20;84.10;;;;;;5028203;28;20036;-67
2023/06/26 04:11:56;;;;;;;10.98;8.40;;;19.30;84.10;;;;;;5023906;28;20428;-72
2023/06/26 04:14:22;;;;;;;9.48;8.23;;;19.30;84.40;;;;;;5026589;28;20040;-68
2023/06/26 04:16:47;;;;;;;11.90;8.43;;;19.30;84.40;;;;;;5025627;28;20115;-68
2023/06/26 04:19:13;;;;;;;11.20;8.48;;;19.30;84.20;;;;;;5032638;28;20048;-67
2023/06/26 04:21:39;;;;;;;10.82;8.65;;;19.40;83.80;;;;;;5024701;28;20025;-67
2023/06/26 04:24:05;;;;;;;12.35;9.00;;;19.40;84.00;;;;;;5028617;28;20067;-67
2023/06/26 04:26:30;;;;;;;10.13;8.10;;;19.40;83.80;;;;;;5023690;28;20032;-67
2023/06/26 04:28:56;;;;;;;12.68;8.70;;;19.50;83.90;;;;;;5025774;28;21242;-64
2023/06/26 04:31:22;;;;;;;9.98;8.60;;;19.50;83.90;;;;;;5016259;28;20029;-64
2023/06/26 04:33:50;;;;;;;11.13;8.23;;;19.50;84.10;;;;;;5032422;28;20109;-63
2023/06/26 04:36:17;;;;;;;10.57;8.30;;;19.50;83.90;;;;;;5024305;28;20121;-64
2023/06/26 04:38:43;;;;;;;10.85;8.80;;;19.50;83.80;;;;;;5023357;28;20025;-63
2023/06/26 04:41:08;;;;;;;11.15;8.30;;;19.60;83.50;;;;;;5025786;28;20307;-63
2023/06/26 04:43:34;;;;;;;11.30;8.10;;;19.70;83.50;;;;;;5026208;28;20041;-63
2023/06/26 04:45:59;;;;;;;12.25;8.82;;;19.70;83.50;;;;;;5021517;28;20079;-63
2023/06/26 04:48:27;;;;;;;9.30;7.80;;;19.80;83.20;;;;;;5019980;28;20073;-63
2023/06/26 04:50:53;;;;;;;9.82;8.13;;;19.90;83.20;;;;;;5018701;28;20096;-68
2023/06/26 04:53:21;;;;;;;10.88;7.88;;;19.90;83.50;;;;;;5013727;28;20037;-63
2023/06/26 04:55:46;;;;;;;10.73;7.75;;;20.00;82.70;;;;;;5018956;28;20029;-64
2023/06/26 04:58:12;;;;;;;12.32;7.70;;;20.00;82.60;;;;;;5021546;28;20044;-66
2023/06/26 05:00:37;;;;;;;9.93;7.80;;;20.10;82.60;;;;;;5021872;28;20036;-64
2023/06/26 05:03:03;;;;;;;9.27;6.78;;;20.10;82.50;;;;;;5027358;28;20037;-65
2023/06/26 05:05:28;;;;;;;12.57;7.38;;;20.20;82.20;;;;;;5019830;28;20202;-64
2023/06/26 05:07:55;;;;;;;9.85;7.35;;;20.30;81.80;;;;;;5014492;28;20113;-65
2023/06/26 05:10:21;;;;;;;9.90;7.68;;;20.40;81.60;;;;;;5020602;28;20030;-64
2023/06/26 05:12:47;;;;;;;8.60;6.75;;;20.50;81.40;;;;;;5031768;28;20036;-63
2023/06/26 05:15:12;;;;;;;8.15;6.78;;;20.50;81.00;;;;;;5021345;28;20917;-66
2023/06/26 05:17:38;;;;;;;8.88;6.93;;;20.60;80.60;;;;;;5023501;28;20076;-63
2023/06/26 05:20:05;;;;;;;7.68;6.55;;;20.70;80.60;;;;;;5020277;28;20037;-67
2023/06/26 05:22:32;;;;;;;10.27;7.15;;;20.90;80.10;;;;;;5021681;28;20136;-63
2023/06/26 05:25:00;;;;;;;8.85;6.72;;;20.90;80.00;;;;;;5028101;28;20112;-63
2023/06/26 05:27:26;;;;;;;8.30;6.68;;;21.00;80.50;;;;;;5023599;28;20026;-67
2023/06/26 05:29:52;;;;;;;10.20;6.15;;;21.10;80.00;;;;;;5029397;28;20180;-64
2023/06/26 05:32:17;;;;;;;9.73;6.75;;;21.20;79.10;;;;;;5022842;28;20108;-65
2023/06/26 05:34:49;;;;;;;9.63;6.85;;;21.30;78.80;;;;;;5024493;28;20052;-64
2023/06/26 05:37:20;;;;;;;10.05;6.40;;;21.40;79.50;;;;;;5026866;28;20109;-64
2023/06/26 05:39:46;;;;;;;9.23;6.75;;;21.50;77.90;;;;;;5027564;28;20701;-66
2023/06/26 05:42:12;;;;;;;8.98;6.43;;;21.60;78.40;;;;;;5029442;28;20083;-64
2023/06/26 05:44:38;;;;;;;10.23;6.13;;;21.70;78.00;;;;;;5026228;28;20075;-65
2023/06/26 05:47:04;;;;;;;7.85;5.82;;;21.90;77.50;;;;;;5018855;28;20036;-63
2023/06/26 05:49:29;;;;;;;9.27;5.82;;;22.00;76.80;;;;;;5025831;28;20028;-64
2023/06/26 05:51:55;;;;;;;8.27;5.40;;;22.10;76.10;;;;;;5031142;28;20025;-63
2023/06/26 05:54:21;;;;;;;9.25;6.07;;;22.20;76.20;;;;;;5030325;28;20383;-63
2023/06/26 05:56:48;;;;;;;7.93;5.72;;;22.30;76.20;;;;;;5024830;28;20033;-64
2023/06/26 05:59:15;;;;;;;9.85;5.72;;;22.50;76.60;;;;;;5020457;28;20086;-65
2023/06/26 06:01:40;;;;;;;7.93;5.65;;;22.60;76.30;;;;;;5022767;28;20032;-64
2023/06/26 06:04:06;;;;;;;7.78;5.50;;;22.70;76.00;;;;;;5043488;28;20041;-65
2023/06/26 06:06:31;;;;;;;8.68;5.47;;;22.80;75.50;;;;;;5027469;28;20112;-64
2023/06/26 06:08:57;;;;;;;7.90;5.55;;;22.90;74.50;;;;;;5027655;28;20054;-65
2023/06/26 06:11:22;;;;;;;8.35;5.25;;;23.00;74.80;;;;;;5028737;28;20108;-64
2023/06/26 06:13:48;;;;;;;8.88;5.93;;;23.20;74.90;;;;;;5027045;28;20179;-65
2023/06/26 06:16:13;;;;;;;6.95;5.35;;;23.30;74.60;;;;;;5020344;28;20461;-64
2023/06/26 06:18:39;;;;;;;7.95;5.38;;;23.40;74.00;;;;;;5030356;28;20029;-64
2023/06/26 06:21:04;;;;;;;8.02;5.57;;;23.50;74.40;;;;;;5023759;28;20032;-64
2023/06/26 06:23:30;;;;;;;7.95;5.30;;;23.60;72.10;;;;;;5023839;28;20044;-64
2023/06/26 06:25:55;;;;;;;7.80;5.22;;;23.70;71.30;;;;;;5028268;28;20473;-66
2023/06/26 06:28:21;;;;;;;10.25;5.60;;;23.70;71.40;;;;;;5025181;28;20385;-64
2023/06/26 06:30:47;;;;;;;7.88;5.28;;;23.80;70.80;;;;;;5017596;28;20056;-69
2023/06/26 06:33:13;;;;;;;7.25;5.20;;;24.00;71.10;;;;;;5017682;28;20044;-65
2023/06/26 06:35:39;;;;;;;8.80;5.20;;;24.10;71.50;;;;;;5020488;28;20315;-65
2023/06/26 06:38:04;;;;;;;7.72;5.53;;;24.20;70.60;;;;;;5021443;28;20120;-66
2023/06/26 06:40:30;;;;;;;6.93;5.35;;;24.40;70.80;;;;;;5029104;28;20146;-66
2023/06/26 06:42:55;;;;;;;7.95;4.75;;;24.40;69.30;;;;;;5016220;28;20450;-68
2023/06/26 06:45:21;;;;;;;8.43;5.78;;;24.50;68.50;;;;;;5019398;28;20105;-67
2023/06/26 06:47:46;;;;;;;7.72;5.10;;;24.70;69.50;;;;;;5020669;28;20026;-66
2023/06/26 06:50:13;;;;;;;7.25;5.10;;;24.70;68.10;;;;;;5026272;28;20460;-66
2023/06/26 06:52:40;;;;;;;13.30;5.10;;;24.90;69.20;;;;;;5023747;28;20049;-68
2023/06/26 06:55:08;;;;;;;6.70;5.10;;;25.00;68.30;;;;;;5024095;28;20139;-66
2023/06/26 06:57:37;;;;;;;10.73;5.30;;;25.10;68.30;;;;;;5031043;28;20387;-65
2023/06/26 07:00:04;;;;;;;5.55;4.38;;;25.10;67.20;;;;;;5018347;28;20081;-65
2023/06/26 07:02:30;;;;;;;8.55;5.38;;;25.30;66.10;;;;;;5019816;28;20044;-66
2023/06/26 07:04:55;;;;;;;8.15;5.15;;;25.40;66.70;;;;;;5019431;28;20098;-67
2023/06/26 07:07:21;;;;;;;6.38;4.75;;;25.50;66.30;;;;;;5026569;28;20186;-66
2023/06/26 07:09:46;;;;;;;8.93;5.20;;;25.60;67.30;;;;;;5021142;28;20033;-67
2023/06/26 07:12:12;;;;;;;7.82;5.47;;;25.90;67.30;;;;;;5021998;28;20084;-67
2023/06/26 07:14:37;;;;;;;7.80;5.07;;;25.90;64.50;;;;;;5026167;28;20446;-68
2023/06/26 07:17:03;;;;;;;7.13;4.88;;;26.00;65.50;;;;;;5022398;28;20140;-67
2023/06/26 07:19:28;;;;;;;6.60;4.85;;;26.10;64.90;;;;;;5022764;28;20040;-68
2023/06/26 07:21:54;;;;;;;8.27;5.05;;;26.20;63.00;;;;;;5017148;28;20026;-67
2023/06/26 07:24:19;;;;;;;8.00;5.28;;;26.20;64.60;;;;;;5023912;28;20491;-67
2023/06/26 07:26:45;;;;;;;6.30;4.75;;;26.30;63.00;;;;;;5018341;28;20429;-67
2023/06/26 07:29:10;;;;;;;7.38;5.07;;;26.40;62.50;;;;;;5024640;28;20025;-67
2023/06/26 07:31:36;;;;;;;6.28;4.40;;;26.50;64.20;;;;;;5019851;28;20414;-65
2023/06/26 07:34:01;;;;;;;9.35;5.53;;;26.50;63.30;;;;;;5015893;28;20127;-66
2023/06/26 07:36:27;;;;;;;8.15;5.22;;;26.50;62.40;;;;;;5016267;28;20084;-67
2023/06/26 07:38:52;;;;;;;7.45;5.60;;;26.60;61.30;;;;;;5019533;28;20030;-66
2023/06/26 07:41:17;;;;;;;6.30;4.60;;;26.60;61.60;;;;;;5026414;28;20033;-65
2023/06/26 07:43:43;;;;;;;8.52;5.22;;;26.90;62.70;;;;;;5032645;28;20117;-67
2023/06/26 07:46:08;;;;;;;7.78;5.47;;;26.80;63.00;;;;;;5018617;28;20350;-66
2023/06/26 07:48:34;;;;;;;6.80;4.65;;;26.60;62.50;;;;;;5025487;28;20057;-65
2023/06/26 07:50:59;;;;;;;7.72;5.20;;;26.60;62.60;;;;;;5012316;28;20050;-67
2023/06/26 07:53:25;;;;;;;7.60;5.35;;;26.40;62.30;;;;;;5021021;28;20516;-67
2023/06/26 07:55:50;;;;;;;8.30;5.75;;;26.30;63.20;;;;;;5024909;28;20105;-66
2023/06/26 07:58:16;;;;;;;9.13;5.60;;;26.10;62.80;;;;;;5027903;28;20037;-66
2023/06/26 08:00:41;;;;;;;9.63;4.63;;;26.20;63.10;;;;;;5022608;28;20109;-67
2023/06/26 08:03:07;;;;;;;7.35;5.60;;;26.50;64.70;;;;;;5021620;28;20048;-65
2023/06/26 08:05:32;;;;;;;8.75;5.32;;;26.90;64.80;;;;;;5030126;28;20053;-65
2023/06/26 08:07:58;;;;;;;9.25;5.35;;;26.90;63.80;;;;;;5025585;28;20103;-66
2023/06/26 08:10:23;;;;;;;7.93;5.35;;;26.90;61.60;;;;;;5021421;28;20056;-67
2023/06/26 08:12:50;;;;;;;13.27;5.78;;;27.00;61.00;;;;;;5037293;28;20097;-67
2023/06/26 08:15:16;;;;;;;9.20;5.60;;;26.90;62.60;;;;;;5030611;28;20133;-68
2023/06/26 08:17:41;;;;;;;9.05;5.53;;;27.20;63.40;;;;;;5026955;28;20112;-65
2023/06/26 08:20:10;;;;;;;7.13;5.38;;;27.50;62.70;;;;;;5028583;28;20078;-66
2023/06/26 08:22:36;;;;;;;6.88;5.47;;;27.30;60.00;;;;;;5035562;28;20702;-66
2023/06/26 08:25:02;;;;;;;8.77;5.38;;;27.10;60.90;;;;;;5028661;28;20044;-66
2023/06/26 08:27:28;;;;;;;9.60;5.50;;;27.20;61.70;;;;;;5020978;28;20070;-67
2023/06/26 08:29:53;;;;;;;12.43;6.03;;;27.50;60.70;;;;;;5018055;28;20052;-67
2023/06/26 08:32:19;;;;;;;7.22;5.25;;;27.50;60.70;;;;;;5013921;28;20053;-67
2023/06/26 08:34:44;;;;;;;8.55;5.70;;;27.60;60.60;;;;;;5018652;28;20640;-70
2023/06/26 08:37:10;;;;;;;9.68;5.20;;;27.40;61.50;;;;;;5025473;28;20044;-67
2023/06/26 08:39:35;;;;;;;8.57;5.75;;;27.70;61.90;;;;;;5028567;28;20033;-69
2023/06/26 08:42:01;;;;;;;7.90;5.60;;;27.50;59.80;;;;;;5041198;28;20025;-67
2023/06/26 08:44:26;;;;;;;10.73;6.90;;;27.70;60.20;;;;;;5025866;28;20044;-66
2023/06/26 08:46:52;;;;;;;13.55;7.30;;;27.70;60.70;;;;;;5023753;28;20036;-68
2023/06/26 08:49:25;;;;;;;9.30;7.00;;;27.70;60.40;;;;;;5029955;28;20031;-68
2023/06/26 08:52:02;;;;;;;12.73;7.30;;;27.50;61.10;;;;;;5037968;28;20033;-67
2023/06/26 08:54:32;;;;;;;9.30;6.97;;;27.50;61.20;;;;;;5024948;28;20037;-68
2023/06/26 08:56:59;;;;;;;10.52;6.90;;;27.70;60.70;;;;;;5024523;28;20044;-67
2023/06/26 08:59:24;;;;;;;11.00;6.90;;;27.50;59.90;;;;;;5022856;28;20076;-69
2023/06/26 09:01:50;;;;;;;8.30;6.30;;;27.60;61.20;;;;;;5015198;28;20205;-68
2023/06/26 09:04:16;;;;;;;9.38;6.80;;;27.80;58.80;;;;;;5021383;28;20033;-68
2023/06/26 09:06:42;;;;;;;12.48;6.78;;;27.90;58.80;;;;;;5028163;28;20574;-72
2023/06/26 09:09:07;;;;;;;9.68;7.10;;;27.70;57.90;;;;;;5026055;28;20196;-67
2023/06/26 09:11:33;;;;;;;14.10;6.78;;;27.80;57.50;;;;;;5031466;28;20029;-68
2023/06/26 09:13:59;;;;;;;11.68;6.55;;;27.30;59.40;;;;;;5024702;28;20033;-68
2023/06/26 09:16:28;;;;;;;16.33;7.63;;;27.40;58.40;;;;;;5018968;28;20041;-67
2023/06/26 09:18:55;;;;;;;9.25;7.00;;;27.20;59.10;;;;;;5024158;28;20033;-68
2023/06/26 09:21:22;;;;;;;13.82;6.78;;;27.00;60.60;;;;;;5021938;28;20052;-70
2023/06/26 09:23:47;;;;;;;10.95;7.45;;;26.70;61.00;;;;;;5030648;28;20477;-68
2023/06/26 09:26:14;;;;;;;11.10;7.07;;;26.60;61.80;;;;;;5027546;28;20080;-68
2023/06/26 09:28:42;;;;;;;12.02;7.00;;;26.80;62.20;;;;;;5025259;28;20029;-67
2023/06/26 09:31:08;;;;;;;10.48;7.68;;;26.40;63.20;;;;;;5029489;28;20039;-67
2023/06/26 09:33:38;;;;;;;10.77;7.82;;;26.00;64.60;;;;;;5016811;28;20025;-68
2023/06/26 09:36:07;;;;;;;13.00;7.90;;;25.40;66.20;;;;;;5027661;28;20037;-69
2023/06/26 09:38:34;;;;;;;12.80;8.50;;;25.50;66.70;;;;;;5028837;28;20453;-67
2023/06/26 09:41:00;;;;;;;10.93;7.07;;;25.70;66.20;;;;;;5024693;28;20083;-67
2023/06/26 09:43:25;;;;;;;9.18;6.50;;;25.40;65.90;;;;;;5026129;28;20446;-68
2023/06/26 09:45:51;;;;;;;10.48;5.60;;;25.00;66.40;;;;;;5019729;28;20052;-67
2023/06/26 09:48:17;;;;;;;10.65;6.18;;;24.60;67.40;;;;;;5030128;28;20100;-70
2023/06/26 09:50:43;;;;;;;17.80;6.10;;;24.30;68.40;;;;;;5018688;28;20101;-69
2023/06/26 09:53:09;;;;;;;10.18;5.75;;;24.00;69.50;;;;;;5031147;28;20358;-67
2023/06/26 09:55:38;;;;;;;9.50;5.50;;;23.50;71.20;;;;;;5033025;28;20333;-67
2023/06/26 09:58:04;;;;;;;17.60;6.88;;;23.10;74.30;;;;;;5024083;28;20049;-67
2023/06/26 10:00:31;;;;;;;15.00;5.85;;;21.10;87.40;;;;;;5013456;28;20037;-69
2023/06/26 10:02:57;;;;;;;11.80;7.45;;;20.40;91.10;;;;;;5020364;28;20120;-69
2023/06/26 10:05:23;;;;;;;9.25;6.13;;;20.00;93.60;;;;;;5026130;28;20422;-66
2023/06/26 10:07:48;;;;;;;9.98;5.70;;;19.50;94.70;;;;;;5021396;28;20090;-68
2023/06/26 10:10:16;;;;;;;8.85;5.30;;;19.30;95.00;;;;;;5015959;28;20689;-69
2023/06/26 10:12:44;;;;;;;9.13;5.78;;;19.30;95.30;;;;;;5013394;28;20116;-67
2023/06/26 10:15:13;;;;;;;8.55;5.63;;;19.30;95.30;;;;;;5018945;28;20107;-69
2023/06/26 10:17:41;;;;;;;10.60;6.70;;;19.20;95.40;;;;;;5026960;28;20460;-67
2023/06/26 10:20:09;;;;;;;12.73;6.72;;;19.20;95.80;;;;;;5021030;28;20077;-67
2023/06/26 10:22:41;;;;;;;11.13;7.30;;;19.10;95.80;;;;;;5030073;28;20441;-68
2023/06/26 10:25:08;;;;;;;13.13;7.93;;;19.20;96.00;;;;;;5021633;28;20036;-68
2023/06/26 10:27:38;;;;;;;13.15;7.90;;;19.20;96.00;;;;;;5015407;28;20174;-69
2023/06/26 10:30:09;;;;;;;13.10;8.57;;;19.30;96.20;;;;;;5018714;28;20356;-67
2023/06/26 10:32:36;;;;;;;10.60;8.30;;;19.40;95.90;;;;;;5030650;28;20116;-72
2023/06/26 10:35:03;;;;;;;14.25;9.75;;;19.50;95.90;;;;;;5027785;28;20069;-67
2023/06/26 10:37:41;;;;;;;16.25;10.63;;;19.90;95.90;;;;;;5023640;28;20044;-67
2023/06/26 10:40:07;;;;;;;18.65;12.35;;;20.50;96.30;;;;;;5023754;28;20124;-68
2023/06/26 10:42:38;;;;;;;17.98;11.68;;;21.00;95.80;;;;;;5027897;28;20100;-67
2023/06/26 10:45:15;;;;;;;15.25;11.80;;;21.10;94.10;;;;;;5020669;28;20105;-70
2023/06/26 10:47:41;;;;;;;15.68;11.48;;;21.20;93.60;;;;;;5024412;28;20086;-67
2023/06/26 10:50:35;;;;;;;13.00;9.27;;;21.50;92.80;;;;;;5018936;28;20065;-68
2023/06/26 10:53:22;;;;;;;13.18;9.15;;;21.70;91.80;;;;;;5019225;28;20038;-68
2023/06/26 10:56:01;;;;;;;12.35;7.55;;;21.60;90.20;;;;;;5022730;28;20120;-69
2023/06/26 10:58:47;;;;;;;14.27;6.80;;;21.60;90.50;;;;;;5022233;28;20195;-67
2023/06/26 11:01:18;;;;;;;9.20;5.10;;;21.80;88.30;;;;;;5019919;28;20424;-70
2023/06/26 11:03:49;;;;;;;9.25;5.47;;;21.50;87.50;;;;;;5015362;28;20044;-68
2023/06/26 11:06:20;;;;;;;7.68;4.63;;;21.70;89.00;;;;;;5026902;28;20202;-70
2023/06/26 11:08:47;;;;;;;11.68;5.15;;;21.60;86.20;;;;;;5020899;28;20486;-69
2023/06/26 11:11:13;;;;;;;10.75;4.82;;;21.50;86.80;;;;;;5027404;28;20022;-67
2023/06/26 11:13:40;;;;;;;8.45;4.50;;;21.30;84.50;;;;;;5020471;28;20136;-68
2023/06/26 11:16:05;;;;;;;9.02;4.40;;;21.10;86.10;;;;;;5026386;28;20460;-67
2023/06/26 11:18:32;;;;;;;14.05;4.40;;;21.00;85.50;;;;;;5028223;28;20025;-68
2023/06/26 11:21:07;;;;;;;10.82;4.22;;;21.20;86.60;;;;;;5028172;28;20040;-68
2023/06/26 11:23:34;;;;;;;11.25;4.30;;;21.60;84.00;;;;;;5027833;28;20037;-68
2023/06/26 11:26:13;;;;;;;9.30;3.78;;;21.50;84.60;;;;;;5033903;28;20049;-67
2023/06/26 11:28:39;;;;;;;10.77;4.07;;;21.40;84.20;;;;;;5023669;28;20024;-69
2023/06/26 11:31:04;;;;;;;18.35;5.20;;;21.50;84.00;;;;;;5021885;28;20037;-67
2023/06/26 11:33:30;;;;;;;14.57;4.47;;;21.70;84.90;;;;;;5028038;28;20052;-67
2023/06/26 11:35:55;;;;;;;8.80;3.55;;;21.90;84.10;;;;;;5027012;28;20075;-68
2023/06/26 11:38:21;;;;;;;15.77;4.05;;;21.70;83.10;;;;;;5027797;28;20064;-67
2023/06/26 11:40:48;;;;;;;12.23;3.40;;;21.70;82.20;;;;;;5029169;28;20044;-67
2023/06/26 11:43:15;;;;;;;9.82;3.13;;;22.00;80.60;;;;;;5033672;28;20127;-67
2023/06/26 11:45:41;;;;;;;8.93;2.60;;;21.50;80.70;;;;;;5017210;28;20112;-68
2023/06/26 11:48:07;;;;;;;9.05;2.92;;;21.30;82.40;;;;;;5028290;28;20466;-67
2023/06/26 11:50:37;;;;;;;8.75;2.58;;;21.30;81.80;;;;;;5024164;28;20075;-67
2023/06/26 11:53:05;;;;;;;8.07;2.40;;;21.30;82.20;;;;;;5025839;28;20330;-68
2023/06/26 11:55:42;;;;;;;10.90;2.42;;;21.20;83.60;;;;;;5026172;28;20105;-68
2023/06/26 11:58:07;;;;;;;12.93;2.78;;;21.20;83.90;;;;;;5027498;28;20032;-68
2023/06/26 12:00:33;;;;;;;8.60;2.05;;;21.20;84.20;;;;;;5026360;28;20049;-67
2023/06/26 12:02:58;;;;;;;8.10;2.03;;;21.60;82.10;;;;;;5030030;28;20033;-69
2023/06/26 12:05:24;;;;;;;6.78;2.10;;;22.10;78.40;;;;;;5025331;28;20160;-67
2023/06/26 12:07:51;;;;;;;9.80;2.22;;;22.50;78.00;;;;;;5027687;28;20086;-68
2023/06/26 12:10:18;;;;;;;8.57;1.80;;;23.00;76.30;;;;;;5025037;28;20195;-68
2023/06/26 12:12:45;;;;;;;9.05;1.90;;;23.30;74.80;;;;;;5027140;28;20037;-68
2023/06/26 12:15:15;;;;;;;12.48;2.80;;;23.30;75.20;;;;;;5021306;28;20070;-69
2023/06/26 12:17:41;;;;;;;10.98;2.42;;;22.80;75.90;;;;;;5026403;28;20029;-67
2023/06/26 12:20:19;;;;;;;7.13;1.85;;;22.30;76.70;;;;;;5023393;28;20091;-68
2023/06/26 12:22:47;;;;;;;7.03;1.80;;;22.70;75.80;;;;;;5022947;28;20025;-68
2023/06/26 12:25:12;;;;;;;6.43;1.88;;;23.30;73.30;;;;;;5025502;28;20037;-69
2023/06/26 12:27:38;;;;;;;6.03;2.00;;;23.80;72.70;;;;;;5022796;28;20111;-69
2023/06/26 12:30:05;;;;;;;9.13;1.80;;;24.00;67.90;;;;;;5024272;28;20104;-69
2023/06/26 12:32:30;;;;;;;6.85;1.80;;;24.60;67.70;;;;;;5030886;28;20017;-70
2023/06/26 12:34:57;;;;;;;5.13;1.67;;;24.80;66.20;;;;;;5024759;28;20088;-70
2023/06/26 12:37:22;;;;;;;6.05;1.60;;;25.20;65.60;;;;;;5025370;28;20168;-69
2023/06/26 12:39:57;;;;;;;7.50;1.80;;;25.00;64.20;;;;;;5023048;28;20061;-70